sensor_id;sensor_type;location;lat;lon;timestamp;P1;durP1;ratioP1;P2;durP2;ratioP2
19358;SDS011;9815;52.334;20.890;2022-07-21T00:00:20;9.73;;;5.27;;
19358;SDS011;9815;52.334;20.890;2022-07-21T00:02:49;9.23;;;4.67;;
19358;SDS011;9815;52.334;20.890;2022-07-21T00:05:18;10.97;;;5.13;;
19358;SDS011;9815;52.334;20.890;2022-07-21T00:07:47;6.93;;;4.77;;
19358;SDS011;9815;52.334;20.890;2022-07-21T00:10:18;12.20;;;5.10;;
19358;SDS011;9815;52.334;20.890;2022-07-21T00:12:48;8.60;;;5.13;;
19358;SDS011;9815;52.334;20.890;2022-07-21T00:15:17;11.63;;;4.97;;
19358;SDS011;9815;52.334;20.890;2022-07-21T00:17:46;9.90;;;5.60;;
19358;SDS011;9815;52.334;20.890;2022-07-21T00:20:15;11.63;;;5.00;;
19358;SDS011;9815;52.334;20.890;2022-07-21T00:22:44;8.23;;;5.10;;
19358;SDS011;9815;52.334;20.890;2022-07-21T00:25:13;7.63;;;4.93;;
19358;SDS011;9815;52.334;20.890;2022-07-21T00:27:43;8.83;;;5.00;;
19358;SDS011;9815;52.334;20.890;2022-07-21T00:30:12;8.20;;;5.10;;
19358;SDS011;9815;52.334;20.890;2022-07-21T00:32:42;8.40;;;4.97;;
19358;SDS011;9815;52.334;20.890;2022-07-21T00:35:11;9.13;;;4.93;;
19358;SDS011;9815;52.334;20.890;2022-07-21T00:37:40;10.40;;;4.73;;
19358;SDS011;9815;52.334;20.890;2022-07-21T00:40:10;8.13;;;4.63;;
19358;SDS011;9815;52.334;20.890;2022-07-21T00:42:39;11.60;;;5.53;;
19358;SDS011;9815;52.334;20.890;2022-07-21T00:45:10;8.40;;;5.40;;
19358;SDS011;9815;52.334;20.890;2022-07-21T00:47:38;12.30;;;5.37;;
19358;SDS011;9815;52.334;20.890;2022-07-21T00:50:09;9.17;;;5.33;;
19358;SDS011;9815;52.334;20.890;2022-07-21T00:52:38;10.10;;;5.03;;
19358;SDS011;9815;52.334;20.890;2022-07-21T00:55:07;10.53;;;5.10;;
19358;SDS011;9815;52.334;20.890;2022-07-21T00:57:37;7.60;;;4.80;;
19358;SDS011;9815;52.334;20.890;2022-07-21T01:00:09;7.83;;;4.87;;
19358;SDS011;9815;52.334;20.890;2022-07-21T01:02:41;9.93;;;5.50;;
19358;SDS011;9815;52.334;20.890;2022-07-21T01:05:11;8.17;;;4.90;;
19358;SDS011;9815;52.334;20.890;2022-07-21T01:07:42;10.50;;;5.70;;
19358;SDS011;9815;52.334;20.890;2022-07-21T01:10:11;7.57;;;4.73;;
19358;SDS011;9815;52.334;20.890;2022-07-21T01:12:41;8.00;;;4.97;;
19358;SDS011;9815;52.334;20.890;2022-07-21T01:15:10;7.87;;;4.80;;
19358;SDS011;9815;52.334;20.890;2022-07-21T01:17:41;10.33;;;5.43;;
19358;SDS011;9815;52.334;20.890;2022-07-21T01:20:11;7.47;;;4.57;;
19358;SDS011;9815;52.334;20.890;2022-07-21T01:22:42;8.30;;;5.10;;
19358;SDS011;9815;52.334;20.890;2022-07-21T01:25:12;8.40;;;5.23;;
19358;SDS011;9815;52.334;20.890;2022-07-21T01:27:42;7.13;;;4.90;;
19358;SDS011;9815;52.334;20.890;2022-07-21T01:30:11;9.60;;;5.47;;
19358;SDS011;9815;52.334;20.890;2022-07-21T01:32:41;7.07;;;4.63;;
19358;SDS011;9815;52.334;20.890;2022-07-21T01:35:10;10.93;;;5.43;;
19358;SDS011;9815;52.334;20.890;2022-07-21T01:37:42;10.97;;;5.20;;
19358;SDS011;9815;52.334;20.890;2022-07-21T01:40:12;9.80;;;5.27;;
19358;SDS011;9815;52.334;20.890;2022-07-21T01:42:58;12.73;;;5.50;;
19358;SDS011;9815;52.334;20.890;2022-07-21T01:45:27;8.77;;;5.13;;
19358;SDS011;9815;52.334;20.890;2022-07-21T01:47:55;9.40;;;5.57;;
19358;SDS011;9815;52.334;20.890;2022-07-21T01:50:24;10.70;;;5.80;;
19358;SDS011;9815;52.334;20.890;2022-07-21T01:52:55;14.87;;;5.63;;
19358;SDS011;9815;52.334;20.890;2022-07-21T01:55:25;13.13;;;5.10;;
19358;SDS011;9815;52.334;20.890;2022-07-21T01:57:54;8.93;;;5.47;;
19358;SDS011;9815;52.334;20.890;2022-07-21T02:00:23;11.10;;;5.43;;
19358;SDS011;9815;52.334;20.890;2022-07-21T02:02:52;10.00;;;5.43;;
19358;SDS011;9815;52.334;20.890;2022-07-21T02:05:20;8.93;;;5.20;;
19358;SDS011;9815;52.334;20.890;2022-07-21T02:07:49;11.90;;;5.30;;
19358;SDS011;9815;52.334;20.890;2022-07-21T02:10:19;10.67;;;5.73;;
19358;SDS011;9815;52.334;20.890;2022-07-21T02:12:47;9.83;;;5.23;;
19358;SDS011;9815;52.334;20.890;2022-07-21T02:15:15;9.00;;;5.00;;
19358;SDS011;9815;52.334;20.890;2022-07-21T02:17:43;10.83;;;5.50;;
19358;SDS011;9815;52.334;20.890;2022-07-21T02:20:11;10.00;;;5.20;;
19358;SDS011;9815;52.334;20.890;2022-07-21T02:22:39;10.57;;;5.20;;
19358;SDS011;9815;52.334;20.890;2022-07-21T02:25:11;10.40;;;5.23;;
19358;SDS011;9815;52.334;20.890;2022-07-21T02:27:41;11.03;;;5.47;;
19358;SDS011;9815;52.334;20.890;2022-07-21T02:30:10;8.63;;;5.37;;
19358;SDS011;9815;52.334;20.890;2022-07-21T02:32:39;7.47;;;5.60;;
19358;SDS011;9815;52.334;20.890;2022-07-21T02:35:08;9.27;;;5.07;;
19358;SDS011;9815;52.334;20.890;2022-07-21T02:37:36;12.17;;;5.60;;
19358;SDS011;9815;52.334;20.890;2022-07-21T02:40:05;10.57;;;5.33;;
19358;SDS011;9815;52.334;20.890;2022-07-21T02:42:34;8.73;;;5.77;;
19358;SDS011;9815;52.334;20.890;2022-07-21T02:45:06;10.37;;;5.40;;
19358;SDS011;9815;52.334;20.890;2022-07-21T02:47:46;9.63;;;5.47;;
19358;SDS011;9815;52.334;20.890;2022-07-21T02:50:16;11.13;;;5.80;;
19358;SDS011;9815;52.334;20.890;2022-07-21T02:52:44;10.47;;;6.47;;
19358;SDS011;9815;52.334;20.890;2022-07-21T02:55:13;10.13;;;5.73;;
19358;SDS011;9815;52.334;20.890;2022-07-21T02:57:41;10.43;;;5.73;;
19358;SDS011;9815;52.334;20.890;2022-07-21T03:00:12;12.27;;;5.60;;
19358;SDS011;9815;52.334;20.890;2022-07-21T03:02:40;10.80;;;5.67;;
19358;SDS011;9815;52.334;20.890;2022-07-21T03:05:09;9.70;;;5.50;;
19358;SDS011;9815;52.334;20.890;2022-07-21T03:07:37;8.53;;;5.07;;
19358;SDS011;9815;52.334;20.890;2022-07-21T03:10:06;9.80;;;5.77;;
19358;SDS011;9815;52.334;20.890;2022-07-21T03:12:35;7.10;;;4.80;;
19358;SDS011;9815;52.334;20.890;2022-07-21T03:15:03;9.20;;;5.43;;
19358;SDS011;9815;52.334;20.890;2022-07-21T03:17:33;7.53;;;5.03;;
19358;SDS011;9815;52.334;20.890;2022-07-21T03:20:01;8.60;;;5.33;;
19358;SDS011;9815;52.334;20.890;2022-07-21T03:22:30;7.67;;;5.13;;
19358;SDS011;9815;52.334;20.890;2022-07-21T03:24:58;8.90;;;4.93;;
19358;SDS011;9815;52.334;20.890;2022-07-21T03:27:26;7.43;;;4.87;;
19358;SDS011;9815;52.334;20.890;2022-07-21T03:29:54;12.33;;;5.33;;
19358;SDS011;9815;52.334;20.890;2022-07-21T03:32:22;10.70;;;5.30;;
19358;SDS011;9815;52.334;20.890;2022-07-21T03:34:52;7.53;;;4.47;;
19358;SDS011;9815;52.334;20.890;2022-07-21T03:37:20;7.70;;;5.20;;
19358;SDS011;9815;52.334;20.890;2022-07-21T03:39:48;9.20;;;4.93;;
19358;SDS011;9815;52.334;20.890;2022-07-21T03:42:16;9.57;;;5.03;;
19358;SDS011;9815;52.334;20.890;2022-07-21T03:44:44;10.90;;;4.80;;
19358;SDS011;9815;52.334;20.890;2022-07-21T03:47:13;9.77;;;4.87;;
19358;SDS011;9815;52.334;20.890;2022-07-21T03:49:41;8.87;;;4.93;;
19358;SDS011;9815;52.334;20.890;2022-07-21T03:52:10;7.10;;;4.97;;
19358;SDS011;9815;52.334;20.890;2022-07-21T03:54:38;14.10;;;4.90;;
19358;SDS011;9815;52.334;20.890;2022-07-21T03:57:07;11.07;;;5.23;;
19358;SDS011;9815;52.334;20.890;2022-07-21T03:59:35;10.13;;;5.70;;
19358;SDS011;9815;52.334;20.890;2022-07-21T04:02:03;9.13;;;5.00;;
19358;SDS011;9815;52.334;20.890;2022-07-21T04:04:31;9.27;;;4.70;;
19358;SDS011;9815;52.334;20.890;2022-07-21T04:07:00;7.77;;;4.33;;
19358;SDS011;9815;52.334;20.890;2022-07-21T04:09:31;9.30;;;5.13;;
19358;SDS011;9815;52.334;20.890;2022-07-21T04:11:59;9.93;;;4.40;;
19358;SDS011;9815;52.334;20.890;2022-07-21T04:14:27;7.73;;;4.57;;
19358;SDS011;9815;52.334;20.890;2022-07-21T04:16:56;6.77;;;4.40;;
19358;SDS011;9815;52.334;20.890;2022-07-21T04:19:24;7.30;;;4.10;;
19358;SDS011;9815;52.334;20.890;2022-07-21T04:21:52;9.20;;;4.70;;
19358;SDS011;9815;52.334;20.890;2022-07-21T04:24:20;7.80;;;4.27;;
19358;SDS011;9815;52.334;20.890;2022-07-21T04:26:50;10.87;;;4.03;;
19358;SDS011;9815;52.334;20.890;2022-07-21T04:29:18;7.30;;;3.50;;
19358;SDS011;9815;52.334;20.890;2022-07-21T04:31:46;6.63;;;3.30;;
19358;SDS011;9815;52.334;20.890;2022-07-21T04:34:14;5.60;;;3.30;;
19358;SDS011;9815;52.334;20.890;2022-07-21T04:36:42;6.27;;;3.13;;
19358;SDS011;9815;52.334;20.890;2022-07-21T04:39:10;5.47;;;3.03;;
19358;SDS011;9815;52.334;20.890;2022-07-21T04:41:39;7.07;;;2.90;;
19358;SDS011;9815;52.334;20.890;2022-07-21T04:44:08;4.73;;;2.77;;
19358;SDS011;9815;52.334;20.890;2022-07-21T04:46:36;6.90;;;2.50;;
19358;SDS011;9815;52.334;20.890;2022-07-21T04:49:04;5.43;;;2.33;;
19358;SDS011;9815;52.334;20.890;2022-07-21T04:51:33;4.70;;;3.00;;
19358;SDS011;9815;52.334;20.890;2022-07-21T04:54:01;5.60;;;2.70;;
19358;SDS011;9815;52.334;20.890;2022-07-21T04:56:30;5.73;;;2.47;;
19358;SDS011;9815;52.334;20.890;2022-07-21T04:58:59;4.23;;;2.37;;
19358;SDS011;9815;52.334;20.890;2022-07-21T05:01:29;7.30;;;2.30;;
19358;SDS011;9815;52.334;20.890;2022-07-21T05:03:57;4.40;;;2.07;;
19358;SDS011;9815;52.334;20.890;2022-07-21T05:06:26;3.33;;;2.40;;
19358;SDS011;9815;52.334;20.890;2022-07-21T05:08:54;8.83;;;2.07;;
19358;SDS011;9815;52.334;20.890;2022-07-21T05:11:22;7.20;;;2.03;;
19358;SDS011;9815;52.334;20.890;2022-07-21T05:13:51;5.73;;;2.00;;
19358;SDS011;9815;52.334;20.890;2022-07-21T05:16:19;5.13;;;2.03;;
19358;SDS011;9815;52.334;20.890;2022-07-21T05:18:49;2.37;;;1.70;;
19358;SDS011;9815;52.334;20.890;2022-07-21T05:21:18;2.27;;;1.83;;
19358;SDS011;9815;52.334;20.890;2022-07-21T05:23:46;4.60;;;1.63;;
19358;SDS011;9815;52.334;20.890;2022-07-21T05:26:15;5.93;;;2.20;;
19358;SDS011;9815;52.334;20.890;2022-07-21T05:28:43;7.23;;;2.30;;
19358;SDS011;9815;52.334;20.890;2022-07-21T05:31:11;3.80;;;1.90;;
19358;SDS011;9815;52.334;20.890;2022-07-21T05:33:39;2.43;;;1.70;;
19358;SDS011;9815;52.334;20.890;2022-07-21T05:36:09;5.10;;;1.70;;
19358;SDS011;9815;52.334;20.890;2022-07-21T05:38:37;4.27;;;1.93;;
19358;SDS011;9815;52.334;20.890;2022-07-21T05:41:06;4.03;;;1.60;;
19358;SDS011;9815;52.334;20.890;2022-07-21T05:43:34;5.47;;;1.87;;
19358;SDS011;9815;52.334;20.890;2022-07-21T05:46:02;6.87;;;1.90;;
19358;SDS011;9815;52.334;20.890;2022-07-21T05:48:30;4.17;;;1.67;;
19358;SDS011;9815;52.334;20.890;2022-07-21T05:50:59;3.70;;;1.70;;
19358;SDS011;9815;52.334;20.890;2022-07-21T05:53:28;7.73;;;1.80;;
19358;SDS011;9815;52.334;20.890;2022-07-21T05:55:56;2.63;;;1.60;;
19358;SDS011;9815;52.334;20.890;2022-07-21T05:58:25;3.93;;;1.60;;
19358;SDS011;9815;52.334;20.890;2022-07-21T06:00:53;8.60;;;2.00;;
19358;SDS011;9815;52.334;20.890;2022-07-21T06:03:36;4.68;;;1.63;;
19358;SDS011;9815;52.334;20.890;2022-07-21T06:06:05;7.43;;;1.60;;
19358;SDS011;9815;52.334;20.890;2022-07-21T06:08:35;5.20;;;1.77;;
19358;SDS011;9815;52.334;20.890;2022-07-21T06:11:04;6.00;;;1.70;;
19358;SDS011;9815;52.334;20.890;2022-07-21T06:13:33;7.80;;;1.80;;
19358;SDS011;9815;52.334;20.890;2022-07-21T06:16:01;4.63;;;2.10;;
19358;SDS011;9815;52.334;20.890;2022-07-21T06:18:29;3.53;;;1.60;;
19358;SDS011;9815;52.334;20.890;2022-07-21T06:20:58;4.30;;;1.45;;
19358;SDS011;9815;52.334;20.890;2022-07-21T06:23:26;4.20;;;1.50;;
19358;SDS011;9815;52.334;20.890;2022-07-21T06:25:56;3.55;;;1.60;;
19358;SDS011;9815;52.334;20.890;2022-07-21T06:28:24;2.43;;;1.50;;
19358;SDS011;9815;52.334;20.890;2022-07-21T06:30:52;10.13;;;2.00;;
19358;SDS011;9815;52.334;20.890;2022-07-21T06:33:21;3.97;;;1.40;;
19358;SDS011;9815;52.334;20.890;2022-07-21T06:35:50;3.90;;;1.48;;
19358;SDS011;9815;52.334;20.890;2022-07-21T06:38:18;4.10;;;1.65;;
19358;SDS011;9815;52.334;20.890;2022-07-21T06:40:46;2.58;;;1.70;;
19358;SDS011;9815;52.334;20.890;2022-07-21T06:43:16;5.28;;;1.30;;
19358;SDS011;9815;52.334;20.890;2022-07-21T06:45:55;4.32;;;1.60;;
19358;SDS011;9815;52.334;20.890;2022-07-21T06:48:24;3.83;;;1.70;;
19358;SDS011;9815;52.334;20.890;2022-07-21T06:50:53;6.50;;;1.38;;
19358;SDS011;9815;52.334;20.890;2022-07-21T06:53:22;4.03;;;1.40;;
19358;SDS011;9815;52.334;20.890;2022-07-21T06:55:51;4.82;;;1.48;;
19358;SDS011;9815;52.334;20.890;2022-07-21T06:58:30;2.83;;;1.42;;
19358;SDS011;9815;52.334;20.890;2022-07-21T07:01:05;4.40;;;1.58;;
19358;SDS011;9815;52.334;20.890;2022-07-21T07:03:34;2.75;;;1.50;;
19358;SDS011;9815;52.334;20.890;2022-07-21T07:06:03;2.63;;;1.50;;
19358;SDS011;9815;52.334;20.890;2022-07-21T07:08:32;3.28;;;1.77;;
19358;SDS011;9815;52.334;20.890;2022-07-21T07:11:09;5.72;;;1.42;;
19358;SDS011;9815;52.334;20.890;2022-07-21T07:13:39;6.35;;;1.60;;
19358;SDS011;9815;52.334;20.890;2022-07-21T07:16:27;4.60;;;1.42;;
19358;SDS011;9815;52.334;20.890;2022-07-21T07:18:56;4.03;;;1.50;;
19358;SDS011;9815;52.334;20.890;2022-07-21T07:21:24;4.72;;;1.58;;
19358;SDS011;9815;52.334;20.890;2022-07-21T07:23:52;5.90;;;2.38;;
19358;SDS011;9815;52.334;20.890;2022-07-21T07:26:21;2.40;;;1.38;;
19358;SDS011;9815;52.334;20.890;2022-07-21T07:28:51;2.70;;;1.50;;
19358;SDS011;9815;52.334;20.890;2022-07-21T07:31:20;4.43;;;1.55;;
19358;SDS011;9815;52.334;20.890;2022-07-21T07:33:48;4.03;;;1.50;;
19358;SDS011;9815;52.334;20.890;2022-07-21T07:36:17;3.08;;;1.90;;
19358;SDS011;9815;52.334;20.890;2022-07-21T07:38:45;4.68;;;1.45;;
19358;SDS011;9815;52.334;20.890;2022-07-21T07:41:14;4.78;;;1.52;;
19358;SDS011;9815;52.334;20.890;2022-07-21T07:43:43;4.43;;;1.70;;
19358;SDS011;9815;52.334;20.890;2022-07-21T07:46:12;7.78;;;1.70;;
19358;SDS011;9815;52.334;20.890;2022-07-21T07:48:41;3.88;;;2.00;;
19358;SDS011;9815;52.334;20.890;2022-07-21T07:51:10;2.13;;;1.20;;
19358;SDS011;9815;52.334;20.890;2022-07-21T07:53:40;4.82;;;1.40;;
19358;SDS011;9815;52.334;20.890;2022-07-21T07:56:08;3.03;;;1.65;;
19358;SDS011;9815;52.334;20.890;2022-07-21T07:58:37;7.47;;;1.48;;
19358;SDS011;9815;52.334;20.890;2022-07-21T08:01:05;2.78;;;1.30;;
19358;SDS011;9815;52.334;20.890;2022-07-21T08:03:35;3.63;;;1.38;;
19358;SDS011;9815;52.334;20.890;2022-07-21T08:06:04;3.72;;;1.48;;
19358;SDS011;9815;52.334;20.890;2022-07-21T08:08:33;4.47;;;1.42;;
19358;SDS011;9815;52.334;20.890;2022-07-21T08:11:01;4.85;;;2.15;;
19358;SDS011;9815;52.334;20.890;2022-07-21T08:13:30;4.97;;;1.40;;
19358;SDS011;9815;52.334;20.890;2022-07-21T08:15:58;4.43;;;1.50;;
19358;SDS011;9815;52.334;20.890;2022-07-21T08:18:28;2.22;;;1.30;;
19358;SDS011;9815;52.334;20.890;2022-07-21T08:20:58;3.53;;;1.50;;
19358;SDS011;9815;52.334;20.890;2022-07-21T08:23:26;3.95;;;1.35;;
19358;SDS011;9815;52.334;20.890;2022-07-21T08:25:54;2.22;;;1.45;;
19358;SDS011;9815;52.334;20.890;2022-07-21T08:28:22;6.78;;;1.60;;
19358;SDS011;9815;52.334;20.890;2022-07-21T08:30:50;2.85;;;1.38;;
19358;SDS011;9815;52.334;20.890;2022-07-21T08:33:19;5.70;;;2.10;;
19358;SDS011;9815;52.334;20.890;2022-07-21T08:35:47;6.43;;;2.00;;
19358;SDS011;9815;52.334;20.890;2022-07-21T08:38:16;7.78;;;2.05;;
19358;SDS011;9815;52.334;20.890;2022-07-21T08:40:46;3.95;;;1.73;;
19358;SDS011;9815;52.334;20.890;2022-07-21T08:43:14;2.72;;;1.73;;
19358;SDS011;9815;52.334;20.890;2022-07-21T08:45:42;6.15;;;1.80;;
19358;SDS011;9815;52.334;20.890;2022-07-21T08:48:11;3.33;;;1.70;;
19358;SDS011;9815;52.334;20.890;2022-07-21T08:50:44;3.80;;;1.55;;
19358;SDS011;9815;52.334;20.890;2022-07-21T08:53:13;5.47;;;1.70;;
19358;SDS011;9815;52.334;20.890;2022-07-21T08:55:42;3.63;;;1.70;;
19358;SDS011;9815;52.334;20.890;2022-07-21T08:58:11;3.78;;;1.60;;
19358;SDS011;9815;52.334;20.890;2022-07-21T09:00:40;4.95;;;1.30;;
19358;SDS011;9815;52.334;20.890;2022-07-21T09:03:11;4.05;;;1.80;;
19358;SDS011;9815;52.334;20.890;2022-07-21T09:05:41;2.55;;;1.40;;
19358;SDS011;9815;52.334;20.890;2022-07-21T09:08:10;6.93;;;1.80;;
19358;SDS011;9815;52.334;20.890;2022-07-21T09:10:39;6.82;;;1.90;;
19358;SDS011;9815;52.334;20.890;2022-07-21T09:13:08;3.65;;;1.55;;
19358;SDS011;9815;52.334;20.890;2022-07-21T09:15:36;4.55;;;2.10;;
19358;SDS011;9815;52.334;20.890;2022-07-21T09:18:09;4.55;;;2.05;;
19358;SDS011;9815;52.334;20.890;2022-07-21T09:20:45;4.97;;;1.95;;
19358;SDS011;9815;52.334;20.890;2022-07-21T09:23:15;7.32;;;1.70;;
19358;SDS011;9815;52.334;20.890;2022-07-21T09:25:45;3.42;;;1.67;;
19358;SDS011;9815;52.334;20.890;2022-07-21T09:28:17;7.15;;;1.98;;
19358;SDS011;9815;52.334;20.890;2022-07-21T09:30:47;2.95;;;1.42;;
19358;SDS011;9815;52.334;20.890;2022-07-21T09:33:22;3.60;;;1.83;;
19358;SDS011;9815;52.334;20.890;2022-07-21T09:35:53;5.95;;;1.65;;
19358;SDS011;9815;52.334;20.890;2022-07-21T09:38:22;3.45;;;1.33;;
19358;SDS011;9815;52.334;20.890;2022-07-21T09:40:51;8.13;;;1.73;;
19358;SDS011;9815;52.334;20.890;2022-07-21T09:43:31;4.53;;;1.83;;
19358;SDS011;9815;52.334;20.890;2022-07-21T09:46:02;3.58;;;1.60;;
19358;SDS011;9815;52.334;20.890;2022-07-21T09:48:32;3.45;;;1.65;;
19358;SDS011;9815;52.334;20.890;2022-07-21T09:53:52;5.45;;;2.25;;
19358;SDS011;9815;52.334;20.890;2022-07-21T09:56:22;4.47;;;1.50;;
19358;SDS011;9815;52.334;20.890;2022-07-21T09:58:53;3.22;;;1.58;;
19358;SDS011;9815;52.334;20.890;2022-07-21T10:01:23;3.38;;;1.75;;
19358;SDS011;9815;52.334;20.890;2022-07-21T10:03:53;5.13;;;1.60;;
19358;SDS011;9815;52.334;20.890;2022-07-21T10:06:23;4.65;;;1.83;;
19358;SDS011;9815;52.334;20.890;2022-07-21T10:08:54;5.68;;;1.40;;
19358;SDS011;9815;52.334;20.890;2022-07-21T10:11:31;4.35;;;1.80;;
19358;SDS011;9815;52.334;20.890;2022-07-21T10:14:01;5.10;;;1.58;;
19358;SDS011;9815;52.334;20.890;2022-07-21T10:16:29;7.80;;;1.77;;
19358;SDS011;9815;52.334;20.890;2022-07-21T10:19:08;5.88;;;1.45;;
19358;SDS011;9815;52.334;20.890;2022-07-21T10:21:43;6.18;;;1.40;;
19358;SDS011;9815;52.334;20.890;2022-07-21T10:24:19;1.83;;;1.17;;
19358;SDS011;9815;52.334;20.890;2022-07-21T10:27:04;3.45;;;1.70;;
19358;SDS011;9815;52.334;20.890;2022-07-21T10:29:52;6.03;;;1.90;;
19358;SDS011;9815;52.334;20.890;2022-07-21T10:32:31;5.55;;;1.55;;
19358;SDS011;9815;52.334;20.890;2022-07-21T10:35:26;4.72;;;1.75;;
19358;SDS011;9815;52.334;20.890;2022-07-21T10:37:56;3.33;;;1.70;;
19358;SDS011;9815;52.334;20.890;2022-07-21T10:40:34;5.32;;;1.70;;
19358;SDS011;9815;52.334;20.890;2022-07-21T10:49:03;2.85;;;1.40;;
19358;SDS011;9815;52.334;20.890;2022-07-21T10:51:36;4.18;;;1.33;;
19358;SDS011;9815;52.334;20.890;2022-07-21T11:00:15;5.28;;;1.58;;
19358;SDS011;9815;52.334;20.890;2022-07-21T11:02:47;4.28;;;1.90;;
19358;SDS011;9815;52.334;20.890;2022-07-21T11:05:17;3.53;;;1.55;;
19358;SDS011;9815;52.334;20.890;2022-07-21T11:10:36;2.90;;;1.60;;
19358;SDS011;9815;52.334;20.890;2022-07-21T11:13:06;3.35;;;1.55;;
19358;SDS011;9815;52.334;20.890;2022-07-21T11:15:44;5.25;;;1.55;;
19358;SDS011;9815;52.334;20.890;2022-07-21T11:18:24;4.53;;;1.40;;
19358;SDS011;9815;52.334;20.890;2022-07-21T11:21:00;1.83;;;1.45;;
19358;SDS011;9815;52.334;20.890;2022-07-21T11:23:36;4.03;;;1.27;;
19358;SDS011;9815;52.334;20.890;2022-07-21T11:26:06;3.63;;;1.50;;
19358;SDS011;9815;52.334;20.890;2022-07-21T11:28:35;4.68;;;1.83;;
19358;SDS011;9815;52.334;20.890;2022-07-21T11:31:11;5.22;;;1.45;;
19358;SDS011;9815;52.334;20.890;2022-07-21T11:33:44;2.75;;;1.55;;
19358;SDS011;9815;52.334;20.890;2022-07-21T11:36:23;3.25;;;1.38;;
19358;SDS011;9815;52.334;20.890;2022-07-21T11:38:57;2.47;;;1.40;;
19358;SDS011;9815;52.334;20.890;2022-07-21T11:41:31;2.83;;;1.30;;
19358;SDS011;9815;52.334;20.890;2022-07-21T11:44:01;3.30;;;1.33;;
19358;SDS011;9815;52.334;20.890;2022-07-21T11:46:43;3.60;;;1.50;;
19358;SDS011;9815;52.334;20.890;2022-07-21T11:49:14;2.88;;;1.40;;
19358;SDS011;9815;52.334;20.890;2022-07-21T11:51:46;17.40;;;1.65;;
19358;SDS011;9815;52.334;20.890;2022-07-21T11:54:19;5.40;;;1.80;;
19358;SDS011;9815;52.334;20.890;2022-07-21T11:56:49;3.92;;;1.45;;
19358;SDS011;9815;52.334;20.890;2022-07-21T11:59:18;5.88;;;1.70;;
19358;SDS011;9815;52.334;20.890;2022-07-21T12:01:47;3.72;;;1.48;;
19358;SDS011;9815;52.334;20.890;2022-07-21T12:04:31;3.92;;;1.80;;
19358;SDS011;9815;52.334;20.890;2022-07-21T12:07:04;6.85;;;1.65;;
19358;SDS011;9815;52.334;20.890;2022-07-21T12:09:33;5.38;;;1.45;;
19358;SDS011;9815;52.334;20.890;2022-07-21T12:12:02;4.53;;;1.80;;
19358;SDS011;9815;52.334;20.890;2022-07-21T12:17:32;9.27;;;2.00;;
19358;SDS011;9815;52.334;20.890;2022-07-21T12:20:04;4.80;;;1.88;;
19358;SDS011;9815;52.334;20.890;2022-07-21T12:22:34;7.32;;;1.65;;
19358;SDS011;9815;52.334;20.890;2022-07-21T12:25:04;9.02;;;2.05;;
19358;SDS011;9815;52.334;20.890;2022-07-21T12:27:35;5.40;;;1.65;;
19358;SDS011;9815;52.334;20.890;2022-07-21T12:30:05;6.00;;;1.77;;
19358;SDS011;9815;52.334;20.890;2022-07-21T12:32:41;11.60;;;2.00;;
19358;SDS011;9815;52.334;20.890;2022-07-21T12:35:23;3.63;;;1.77;;
19358;SDS011;9815;52.334;20.890;2022-07-21T12:38:02;4.75;;;1.73;;
19358;SDS011;9815;52.334;20.890;2022-07-21T12:40:33;7.75;;;2.00;;
19358;SDS011;9815;52.334;20.890;2022-07-21T12:43:07;4.05;;;1.52;;
19358;SDS011;9815;52.334;20.890;2022-07-21T12:45:48;4.75;;;1.95;;
19358;SDS011;9815;52.334;20.890;2022-07-21T12:48:19;4.97;;;1.88;;
19358;SDS011;9815;52.334;20.890;2022-07-21T12:51:00;5.65;;;1.80;;
19358;SDS011;9815;52.334;20.890;2022-07-21T12:53:37;7.47;;;1.92;;
19358;SDS011;9815;52.334;20.890;2022-07-21T12:56:09;4.72;;;1.55;;
19358;SDS011;9815;52.334;20.890;2022-07-21T12:58:39;5.03;;;1.60;;
19358;SDS011;9815;52.334;20.890;2022-07-21T13:01:08;10.88;;;2.00;;
19358;SDS011;9815;52.334;20.890;2022-07-21T13:03:37;4.72;;;1.67;;
19358;SDS011;9815;52.334;20.890;2022-07-21T13:06:07;3.25;;;1.35;;
19358;SDS011;9815;52.334;20.890;2022-07-21T13:08:36;7.40;;;1.80;;
19358;SDS011;9815;52.334;20.890;2022-07-21T13:11:06;3.97;;;1.67;;
19358;SDS011;9815;52.334;20.890;2022-07-21T13:13:34;4.03;;;1.67;;
19358;SDS011;9815;52.334;20.890;2022-07-21T13:16:04;5.55;;;1.90;;
19358;SDS011;9815;52.334;20.890;2022-07-21T13:18:34;7.20;;;2.03;;
19358;SDS011;9815;52.334;20.890;2022-07-21T13:21:02;2.45;;;1.33;;
19358;SDS011;9815;52.334;20.890;2022-07-21T13:23:33;6.43;;;1.50;;
19358;SDS011;9815;52.334;20.890;2022-07-21T13:26:02;3.55;;;1.48;;
19358;SDS011;9815;52.334;20.890;2022-07-21T13:28:32;6.25;;;1.80;;
19358;SDS011;9815;52.334;20.890;2022-07-21T13:31:03;4.05;;;1.70;;
19358;SDS011;9815;52.334;20.890;2022-07-21T13:33:33;2.95;;;1.60;;
19358;SDS011;9815;52.334;20.890;2022-07-21T13:36:02;7.13;;;1.40;;
19358;SDS011;9815;52.334;20.890;2022-07-21T13:38:35;5.18;;;1.60;;
19358;SDS011;9815;52.334;20.890;2022-07-21T13:41:03;4.07;;;1.80;;
19358;SDS011;9815;52.334;20.890;2022-07-21T13:43:52;4.68;;;1.70;;
19358;SDS011;9815;52.334;20.890;2022-07-21T13:46:21;4.75;;;1.77;;
19358;SDS011;9815;52.334;20.890;2022-07-21T13:48:49;4.85;;;1.60;;
19358;SDS011;9815;52.334;20.890;2022-07-21T13:51:18;3.05;;;1.42;;
19358;SDS011;9815;52.334;20.890;2022-07-21T13:53:49;5.57;;;1.70;;
19358;SDS011;9815;52.334;20.890;2022-07-21T13:56:20;7.22;;;1.83;;
19358;SDS011;9815;52.334;20.890;2022-07-21T13:58:48;4.70;;;1.60;;
19358;SDS011;9815;52.334;20.890;2022-07-21T14:01:17;7.55;;;1.50;;
19358;SDS011;9815;52.334;20.890;2022-07-21T14:03:46;4.38;;;1.50;;
19358;SDS011;9815;52.334;20.890;2022-07-21T14:06:16;5.15;;;1.90;;
19358;SDS011;9815;52.334;20.890;2022-07-21T14:08:44;4.90;;;1.67;;
19358;SDS011;9815;52.334;20.890;2022-07-21T14:11:14;8.02;;;1.85;;
19358;SDS011;9815;52.334;20.890;2022-07-21T14:13:42;4.05;;;1.52;;
19358;SDS011;9815;52.334;20.890;2022-07-21T14:16:11;3.42;;;1.60;;
19358;SDS011;9815;52.334;20.890;2022-07-21T14:18:40;4.63;;;1.70;;
19358;SDS011;9815;52.334;20.890;2022-07-21T14:21:08;3.10;;;1.40;;
19358;SDS011;9815;52.334;20.890;2022-07-21T14:23:37;4.10;;;1.70;;
19358;SDS011;9815;52.334;20.890;2022-07-21T14:26:06;4.70;;;1.50;;
19358;SDS011;9815;52.334;20.890;2022-07-21T14:28:35;2.97;;;1.60;;
19358;SDS011;9815;52.334;20.890;2022-07-21T14:31:04;4.47;;;1.75;;
19358;SDS011;9815;52.334;20.890;2022-07-21T14:33:32;2.63;;;1.40;;
19358;SDS011;9815;52.334;20.890;2022-07-21T14:36:00;4.60;;;1.70;;
19358;SDS011;9815;52.334;20.890;2022-07-21T14:38:28;9.05;;;1.90;;
19358;SDS011;9815;52.334;20.890;2022-07-21T14:40:56;5.18;;;1.70;;
19358;SDS011;9815;52.334;20.890;2022-07-21T14:43:25;4.25;;;1.80;;
19358;SDS011;9815;52.334;20.890;2022-07-21T14:45:54;3.67;;;1.38;;
19358;SDS011;9815;52.334;20.890;2022-07-21T14:48:23;3.95;;;1.63;;
19358;SDS011;9815;52.334;20.890;2022-07-21T14:50:51;3.55;;;1.73;;
19358;SDS011;9815;52.334;20.890;2022-07-21T14:53:20;5.78;;;1.70;;
19358;SDS011;9815;52.334;20.890;2022-07-21T14:55:48;3.45;;;1.90;;
19358;SDS011;9815;52.334;20.890;2022-07-21T14:58:16;4.15;;;1.65;;
19358;SDS011;9815;52.334;20.890;2022-07-21T15:00:44;5.97;;;1.67;;
19358;SDS011;9815;52.334;20.890;2022-07-21T15:03:14;6.75;;;1.52;;
19358;SDS011;9815;52.334;20.890;2022-07-21T15:05:42;3.80;;;1.50;;
19358;SDS011;9815;52.334;20.890;2022-07-21T15:08:11;6.32;;;1.83;;
19358;SDS011;9815;52.334;20.890;2022-07-21T15:10:40;4.78;;;1.77;;
19358;SDS011;9815;52.334;20.890;2022-07-21T15:13:10;7.82;;;1.65;;
19358;SDS011;9815;52.334;20.890;2022-07-21T15:15:38;5.10;;;2.05;;
19358;SDS011;9815;52.334;20.890;2022-07-21T15:18:07;5.00;;;1.38;;
19358;SDS011;9815;52.334;20.890;2022-07-21T15:20:37;4.45;;;1.63;;
19358;SDS011;9815;52.334;20.890;2022-07-21T15:23:05;5.10;;;1.60;;